Latest Weather Observations for Garden Island

IDW60801

Issued at 1:54 pm WST Thursday 28 January 2021 (issued every 10 minutes, with the page automatically refreshed every 10 minutes)

About weather observations | Map of weather stations | Latest weather observations for WA | Other Formats
Station Details ID: 009256 Name: GARDEN ISLAND HSF Lat: -32.24 Lon: 115.68 Height: 6.0 m
Data from the previous 72 hours. | See also: Recent months at Garden Island
Date/Time
WST
Temp
°C
App
Temp
°C
Dew
Point
°C
Rel
Hum
%
Delta-T
°C
Wind Press
QNH
hPa
Press
MSL
hPa
Rain since
9am
mm
Dir  Spd
km/h
Gust
km/h
Spd
kts
Gust
kts
28/01:30pm 23.4 18.2 18.3 73 3.2 SSW 43 50 23 27 1013.6 1013.6 0.0
28/01:00pm 23.0 17.9 17.7 72 3.3 SSW 41 48 22 26 1013.9 1013.9 0.0
28/12:30pm 23.5 19.6 17.0 67 4.0 SW 33 44 18 24 1014.3 1014.3 0.0
28/12:20pm 24.8 23.7 17.3 63 4.7 SSW 19 39 10 21 1014.4 1014.4 0.0
28/12:00pm 26.8 25.7 12.1 40 8.5 S 9 13 5 7 1014.6 1014.6 0.0
28/11:30am 27.2 25.4 13.2 42 8.2 SE 15 22 8 12 1014.8 1014.8 0.0
28/11:00am 26.0 23.9 12.5 43 7.8 SE 15 22 8 12 1015.1 1015.1 0.0
28/10:30am 24.8 22.5 13.0 47 6.8 SE 17 22 9 12 1015.6 1015.6 0.0
28/10:00am 23.3 21.2 13.5 54 5.7 SE 17 24 9 13 1015.9 1015.9 0.0
28/09:30am 22.4 20.2 13.2 56 5.3 SE 17 20 9 11 1016.1 1016.1 0.0
28/09:00am 21.2 18.8 12.6 58 4.9 SE 17 24 9 13 1016.1 1016.1 0.2
28/08:30am 20.5 17.7 12.5 60 4.5 ESE 19 24 10 13 1016.2 1016.2 0.2
28/08:00am 18.7 14.4 12.0 65 3.7 SE 26 35 14 19 1016.2 1016.2 0.2
28/07:30am 17.6 13.0 11.2 66 3.5 SE 26 35 14 19 1016.2 1016.2 0.2
28/07:00am 16.7 11.7 10.8 68 3.1 SE 28 32 15 17 1015.9 1015.9 0.2
28/06:30am 16.2 12.3 10.7 70 2.9 SE 22 28 12 15 1015.9 1015.9 0.2
28/06:00am 16.1 12.1 10.4 69 3.0 SSE 22 26 12 14 1015.8 1015.8 0.2
28/05:30am 16.1 12.5 10.0 67 3.2 SSE 19 28 10 15 1015.6 1015.6 0.2
28/05:00am 16.4 12.7 10.0 66 3.4 SE 20 28 11 15 1015.3 1015.3 0.2
28/04:30am 16.7 12.2 9.9 64 3.6 SE 24 30 13 16 1015.0 1015.0 0.2
28/04:00am 16.9 11.8 9.3 61 3.9 SE 26 32 14 17 1014.7 1014.7 0.2
28/03:30am 17.3 11.4 9.2 59 4.2 SE 30 35 16 19 1014.4 1014.4 0.2
28/03:00am 17.5 12.4 9.2 58 4.3 SE 26 35 14 19 1014.2 1014.2 0.2
28/02:30am 17.8 12.2 8.9 56 4.6 SE 28 35 15 19 1014.1 1014.1 0.2
28/02:00am 18.2 13.1 9.3 56 4.7 SE 26 32 14 17 1014.3 1014.3 0.2
28/01:30am 18.7 13.6 9.2 54 5.0 SE 26 35 14 19 1014.2 1014.2 0.2
28/01:00am 18.8 14.5 9.3 54 5.0 SE 22 28 12 15 1014.2 1014.2 0.2
28/12:30am 19.1 14.1 9.6 54 5.0 SE 26 33 14 18 1014.0 1014.0 0.2
28/12:00am 19.5 14.1 9.4 52 5.3 SSE 28 35 15 19 1013.8 1013.8 0.2
 
Date/Time
WST
Temp
°C
App
Temp
°C
Dew
Point
°C
Rel
Hum
%
Delta-T
°C
Wind Press
QNH
hPa
Press
MSL
hPa
Rain since
9am
mm
Dir  Spd
km/h
Gust
km/h
Spd
kts
Gust
kts
27/11:30pm 20.2 15.2 11.1 56 5.0 SSE 28 33 15 18 1013.6 1013.6 0.2
27/11:00pm 20.6 15.0 10.1 51 5.7 SSE 30 35 16 19 1013.5 1013.5 0.2
27/10:30pm 21.2 15.1 10.4 50 5.9 SSE 33 39 18 21 1013.2 1013.2 0.2
27/10:00pm 21.8 14.8 10.0 47 6.4 SSE 37 44 20 24 1013.1 1013.1 0.2
27/09:30pm 22.5 15.5 12.4 52 5.7 SSE 41 46 22 25 1012.7 1012.7 0.2
27/09:00pm 22.7 15.3 12.3 52 5.9 S 43 50 23 27 1012.2 1012.2 0.2
27/08:30pm 22.8 15.3 14.9 61 4.7 S 48 56 26 30 1011.7 1011.7 0.2
27/08:00pm 22.3 14.6 15.4 65 4.1 SSW 50 59 27 32 1011.2 1011.2 0.2
27/07:30pm 22.0 13.6 14.6 63 4.4 SSW 52 59 28 32 1011.1 1011.1 0.2
27/07:00pm 22.3 15.2 14.9 63 4.4 SSW 46 56 25 30 1010.8 1010.8 0.2
27/06:30pm 22.3 15.2 14.9 63 4.4 SSW 46 56 25 30 1010.9 1010.9 0.2
27/06:00pm 22.3 15.2 14.9 63 4.4 SSW 46 54 25 29 1010.6 1010.6 0.2
27/05:30pm 22.1 15.2 15.5 66 3.9 SSW 46 56 25 30 1010.6 1010.6 0.2
27/05:00pm 22.1 15.6 15.7 67 3.8 SSW 44 54 24 29 1010.4 1010.4 0.2
27/04:30pm 22.4 15.3 14.0 59 4.9 SSW 44 52 24 28 1010.5 1010.5 0.2
27/04:00pm 22.8 17.1 15.1 62 4.6 SSW 39 48 21 26 1010.7 1010.7 0.2
27/03:30pm 22.5 16.0 14.1 59 4.9 SSW 41 46 22 25 1010.8 1010.8 0.2
27/03:00pm 22.3 15.5 14.2 60 4.7 SSW 43 50 23 27 1010.6 1010.6 0.2
27/02:30pm 22.4 16.2 15.0 63 4.4 SSW 41 50 22 27 1010.9 1010.9 0.2
27/02:00pm 22.3 15.9 14.2 60 4.7 SSW 41 46 22 25 1011.0 1011.0 0.2
27/01:30pm 22.3 16.5 14.9 63 4.4 SSW 39 48 21 26 1011.1 1011.1 0.2
27/01:00pm 21.7 16.2 14.8 65 4.1 SSW 37 43 20 23 1011.1 1011.1 0.2
27/12:30pm 21.9 16.8 14.8 64 4.2 SSW 35 43 19 23 1011.2 1011.2 0.2
27/12:00pm 22.0 17.6 15.6 67 3.8 SSW 33 41 18 22 1011.4 1011.4 0.2
27/11:30am 21.3 17.9 14.7 66 3.9 SSW 26 32 14 17 1011.4 1011.4 0.2
27/11:00am 21.1 17.1 15.2 69 3.5 S 30 35 16 19 1011.5 1011.5 0.2
27/10:30am 20.6 17.3 16.0 75 2.8 S 28 35 15 19 1011.5 1011.5 0.0
27/10:00am 20.1 17.1 16.9 82 1.9 S 28 35 15 19 1011.4 1011.4 0.0
27/09:30am 18.9 17.6 16.7 87 1.3 SSE 19 24 10 13 1011.3 1011.3 0.0
27/09:00am 18.0 17.6 17.2 95 0.5 SE 15 20 8 11 1011.2 1011.2 0.4
27/08:30am 17.4 13.4 16.1 92 0.8 SSE 32 35 17 19 1011.2 1011.2 0.4
27/08:20am 18.6 16.0 16.9 90 1.0 SSE 26 33 14 18 1011.0 1011.0 0.2
27/08:00am 19.8 19.6 15.7 77 2.4 S 11 15 6 8 1010.5 1010.5 0.0
27/07:30am 20.1 20.1 13.6 66 3.7 ESE 6 7 3 4 1010.3 1010.3 0.0
27/07:00am 21.2 22.1 14.1 64 4.1 SE 2 7 1 4 1010.0 1010.0 0.0
27/06:30am 19.3 19.2 13.9 71 3.1 ENE 7 9 4 5 1009.8 1009.8 0.0
27/06:00am 17.7 16.9 13.0 74 2.6 ESE 9 11 5 6 1009.6 1009.6 0.0
27/05:30am 17.7 16.4 12.6 72 2.8 ESE 11 15 6 8 1009.5 1009.5 0.0
27/05:00am 18.2 17.0 12.9 71 3.0 ESE 11 15 6 8 1009.4 1009.4 0.0
27/04:30am 18.2 16.6 12.9 71 3.0 ESE 13 19 7 10 1009.2 1009.2 0.0
27/04:00am 18.2 16.3 13.1 72 2.9 SE 15 20 8 11 1009.1 1009.1 0.0
27/03:30am 18.2 15.5 12.9 71 3.0 SE 19 22 10 12 1009.1 1009.1 0.0
27/03:00am 18.4 15.6 13.3 72 2.9 SE 20 22 11 12 1009.1 1009.1 0.0
27/02:30am 18.3 15.6 13.0 71 3.0 SE 19 24 10 13 1009.1 1009.1 0.0
27/02:00am 18.8 15.8 13.6 72 3.0 SE 22 26 12 14 1009.2 1009.2 0.0
27/01:30am 20.5 16.7 14.6 69 3.4 SSW 28 35 15 19 1009.1 1009.1 0.0
27/01:00am 20.4 16.5 14.5 69 3.4 SSW 28 37 15 20 1009.2 1009.2 0.0
27/12:30am 20.5 16.7 14.6 69 3.4 SSW 28 33 15 18 1009.2 1009.2 0.0
27/12:00am 20.4 16.4 14.1 67 3.7 SSW 28 33 15 18 1009.3 1009.3 0.0
 
Date/Time
WST
Temp
°C
App
Temp
°C
Dew
Point
°C
Rel
Hum
%
Delta-T
°C
Wind Press
QNH
hPa
Press
MSL
hPa
Rain since
9am
mm
Dir  Spd
km/h
Gust
km/h
Spd
kts
Gust
kts
26/11:30pm 20.3 15.7 13.5 65 3.9 SSW 30 35 16 19 1009.3 1009.3 0.0
26/11:00pm 20.6 16.0 15.2 71 3.2 SSW 33 41 18 22 1009.5 1009.5 0.0
26/10:30pm 20.6 15.5 14.7 69 3.5 SSW 35 44 19 24 1009.7 1009.7 0.0
26/10:00pm 20.7 15.6 14.8 69 3.5 SSW 35 43 19 23 1009.7 1009.7 0.0
26/09:30pm 20.8 16.0 14.7 68 3.6 SSW 33 41 18 22 1009.8 1009.8 0.0
26/09:00pm 20.5 15.6 14.2 67 3.7 SSW 33 41 18 22 1009.7 1009.7 0.0
26/08:30pm 20.9 16.7 15.7 72 3.1 SSW 32 39 17 21 1009.3 1009.3 0.0
26/08:00pm 20.9 16.4 15.4 71 3.3 SSW 33 41 18 22 1009.1 1009.1 0.0
26/07:30pm 20.7 16.2 15.0 70 3.4 SSW 32 39 17 21 1008.8 1008.8 0.0
26/07:00pm 21.2 16.9 16.0 72 3.1 SSW 33 41 18 22 1008.8 1008.8 0.0
26/06:30pm 21.4 16.9 15.5 69 3.5 SSW 33 39 18 21 1008.7 1008.7 0.0
26/06:00pm 21.3 16.7 14.5 65 4.0 SW 32 39 17 21 1008.2 1008.2 0.0
26/05:30pm 21.6 17.3 15.9 70 3.4 SW 33 43 18 23 1008.0 1007.9 0.0
26/05:00pm 22.0 17.1 16.3 70 3.5 SW 37 44 20 24 1008.0 1007.9 0.0
26/04:30pm 21.8 17.0 15.6 68 3.7 SW 35 46 19 25 1007.9 1007.8 0.0
26/04:00pm 22.2 17.4 15.5 66 4.0 SW 35 46 19 25 1008.0 1007.9 0.0
26/03:30pm 22.4 17.8 16.0 67 3.9 SW 35 46 19 25 1007.9 1007.8 0.0
26/03:00pm 22.8 18.8 16.1 66 4.1 SW 32 39 17 21 1007.9 1007.8 0.0
26/02:30pm 22.1 17.8 15.5 66 3.9 SW 32 43 17 23 1008.0 1007.9 0.0
26/02:00pm 23.1 19.7 15.7 63 4.5 SW 28 37 15 20 1008.1 1008.1 0.0
26/01:30pm 22.8 19.8 14.9 61 4.7 SW 24 30 13 16 1008.1 1008.1 0.0
26/01:00pm 23.4 21.5 15.2 60 4.9 SW 19 24 10 13 1007.9 1007.8 0.0
26/12:30pm 22.8 20.4 14.4 59 4.9 SW 20 28 11 15 1008.3 1008.3 0.0
26/12:00pm 22.8 20.9 15.1 62 4.6 SW 19 24 10 13 1008.6 1008.6 0.0
26/11:30am 22.5 20.2 14.6 61 4.7 SW 20 26 11 14 1009.2 1009.2 0.0
26/11:00am 22.4 20.5 14.3 60 4.8 SW 17 22 9 12 1009.3 1009.3 0.0
26/10:30am 22.3 20.5 13.4 57 5.1 WSW 15 19 8 10 1009.4 1009.4 0.0
26/10:00am 22.6 21.7 13.7 57 5.2 WSW 11 15 6 8 1009.0 1009.0 0.0
26/09:30am 21.9 21.2 13.3 58 4.9 SW 9 13 5 7 1008.9 1008.9 0.0
26/09:00am 21.0 20.1 12.7 59 4.7 SSE 9 11 5 6 1008.9 1008.9 0.0
26/08:30am 20.5 20.0 12.7 61 4.4 SSE 7 9 4 5 1009.3 1009.3 0.0
26/08:00am 20.9 20.3 13.4 62 4.3 SE 9 13 5 7 1009.4 1009.4 0.0
26/07:30am 20.0 19.1 12.7 63 4.1 SE 9 13 5 7 1009.6 1009.6 0.0
26/07:00am 19.2 17.2 12.7 66 3.7 ESE 15 17 8 9 1009.4 1009.4 0.0
26/06:30am 18.3 16.2 12.3 68 3.3 ESE 15 20 8 11 1009.1 1009.1 0.0
26/06:00am 17.7 15.7 12.6 72 2.8 ESE 15 20 8 11 1009.0 1009.0 0.0
26/05:30am 17.5 15.1 12.6 73 2.7 ESE 17 20 9 11 1008.9 1008.9 0.0
26/05:00am 17.8 15.5 12.9 73 2.7 ESE 17 22 9 12 1008.6 1008.6 0.0
26/04:30am 17.9 16.0 13.0 73 2.7 ESE 15 24 8 13 1008.4 1008.4 0.0
26/04:00am 17.9 16.1 13.2 74 2.7 ESE 15 19 8 10 1008.5 1008.5 0.0
26/03:30am 17.7 16.7 13.4 76 2.4 ESE 11 15 6 8 1008.4 1008.4 0.0
26/03:00am 18.0 16.7 13.7 76 2.4 ESE 13 17 7 9 1008.3 1008.3 0.0
26/02:30am 18.3 17.2 14.2 77 2.4 ESE 13 15 7 8 1008.5 1008.5 0.0
26/02:00am 18.9 17.7 15.0 78 2.3 ESE 15 20 8 11 1008.4 1008.4 0.0
26/01:30am 19.5 17.5 15.4 77 2.4 SE 20 24 11 13 1008.4 1008.4 0.0
26/01:00am 19.7 18.3 15.6 77 2.4 SE 17 20 9 11 1008.4 1008.4 0.0
26/12:30am 21.2 19.0 16.0 72 3.1 SSE 22 28 12 15 1008.5 1008.5 0.0
26/12:00am 21.9 19.0 16.2 70 3.4 S 26 30 14 16 1008.6 1008.6 0.0
 
Date/Time
WST
Temp
°C
App
Temp
°C
Dew
Point
°C
Rel
Hum
%
Delta-T
°C
Wind Press
QNH
hPa
Press
MSL
hPa
Rain since
9am
mm
Dir  Spd
km/h
Gust
km/h
Spd
kts
Gust
kts
25/11:30pm 22.3 19.7 16.8 71 3.4 S 26 30 14 16 1008.8 1008.8 0.0
25/11:00pm 21.9 19.3 17.7 77 2.6 SSW 28 32 15 17 1009.0 1009.0 0.0
25/10:30pm 21.6 18.7 17.0 75 2.8 SSW 28 32 15 17 1009.3 1009.3 0.0
25/10:00pm 21.6 18.5 17.4 77 2.6 SSW 30 33 16 18 1009.6 1009.6 0.0
25/09:30pm 21.3 17.8 16.5 74 2.9 SSW 30 35 16 19 1009.7 1009.7 0.0
25/09:00pm 21.5 17.3 16.2 72 3.2 SSW 33 37 18 20 1009.7 1009.7 0.0
25/08:30pm 21.6 17.6 16.8 74 2.9 SSW 33 39 18 21 1009.5 1009.5 0.0
25/08:00pm 21.3 17.0 16.9 76 2.7 SSW 35 39 19 21 1009.3 1009.3 0.0
25/07:30pm 21.1 16.7 16.7 76 2.7 SSW 35 41 19 22 1009.3 1009.3 0.0
25/07:00pm 21.5 17.6 16.5 73 3.0 SSW 32 39 17 21 1009.3 1009.3 0.0
25/06:30pm 22.2 18.0 16.2 69 3.6 SSW 33 39 18 21 1009.0 1009.0 0.0
25/06:00pm 22.3 18.0 15.9 67 3.9 SSW 33 39 18 21 1009.1 1009.1 0.0
25/05:30pm 22.7 18.5 15.8 65 4.2 SW 32 39 17 21 1009.1 1009.1 0.0
25/05:00pm 22.7 18.6 15.0 61 4.6 SW 30 37 16 20 1008.9 1008.9 0.0
25/04:30pm 22.6 19.0 16.2 67 3.9 SW 30 37 16 20 1009.0 1009.0 0.0
25/04:00pm 22.8 18.9 15.4 63 4.4 SW 30 33 16 18 1008.9 1008.9 0.0
25/03:30pm 23.0 19.2 14.8 60 4.9 SW 28 35 15 19 1009.0 1009.0 0.0
25/03:00pm 23.6 20.4 14.3 56 5.5 SW 24 33 13 18 1009.1 1009.1 0.0
25/02:30pm 23.5 20.1 13.7 54 5.7 SW 24 32 13 17 1009.2 1009.2 0.0
25/02:00pm 23.8 20.7 14.5 56 5.5 SW 24 32 13 17 1009.5 1009.5 0.0

Other formats

Comma delimited format used in spreadsheet applications
http://www.bom.gov.au/fwo/IDW60801/IDW60801.95607.axf

JavaScript Object Notation format (JSON) in row-major order
http://www.bom.gov.au/fwo/IDW60801/IDW60801.95607.json

Data quality

Most of these data are generated automatically and are frequently updated. Quality checks on data are not normally performed. It is possible for incorrect values to appear. Refer to information at About Latest Weather Observations and please check the disclaimer before using these data.